Time;durP1;ratioP1;P1;durP2;ratioP2;P2;SDS_P1;SDS_P2;PMS_P1;PMS_P2;Temp;Humidity;BMP_temperature;BMP_pressure;BME280_temperature;BME280_humidity;BME280_pressure;Samples;Min_cycle;Max_cycle;Signal;HPM_P1;HPM_P2
2022/10/12 00:01:07;;;;;;;11.13;7.82;;;7.10;99.90;;;;;;4996191;28;94453;-31
2022/10/12 00:03:34;;;;;;;11.77;7.65;;;7.10;99.90;;;;;;4996977;28;93733;-32
2022/10/12 00:06:04;;;;;;;12.55;8.48;;;7.00;99.90;;;;;;4996011;28;92604;-31
2022/10/12 00:08:29;;;;;;;15.20;8.30;;;7.10;99.90;;;;;;4999528;28;95155;-33
2022/10/12 00:10:55;;;;;;;14.55;8.13;;;7.00;99.90;;;;;;4999832;28;94047;-31
2022/10/12 00:13:21;;;;;;;18.20;9.55;;;7.00;99.90;;;;;;4999169;28;93161;-30
2022/10/12 00:15:46;;;;;;;12.98;8.68;;;7.00;99.90;;;;;;4999525;28;92920;-32
2022/10/12 00:18:12;;;;;;;16.38;8.50;;;7.00;99.90;;;;;;5000030;28;95381;-29
2022/10/12 00:20:37;;;;;;;10.98;8.63;;;6.90;99.90;;;;;;4999423;28;94152;-30
2022/10/12 00:23:03;;;;;;;15.27;8.82;;;7.00;99.90;;;;;;4999302;28;93309;-30
2022/10/12 00:25:29;;;;;;;12.48;8.77;;;7.00;99.90;;;;;;4999339;28;94414;-29
2022/10/12 00:27:55;;;;;;;13.70;9.00;;;7.00;99.90;;;;;;4998936;28;94697;-32
2022/10/12 00:30:21;;;;;;;17.20;9.48;;;7.10;99.90;;;;;;5000133;28;95181;-30
2022/10/12 00:32:46;;;;;;;11.20;8.73;;;7.10;99.90;;;;;;4999328;28;94677;-33
2022/10/12 00:35:12;;;;;;;12.45;9.35;;;7.20;99.90;;;;;;4999782;28;94065;-28
2022/10/12 00:37:37;;;;;;;15.25;8.57;;;7.20;99.90;;;;;;4998441;28;94731;-29
2022/10/12 00:40:03;;;;;;;16.30;9.52;;;7.10;99.90;;;;;;4998873;28;95384;-31
2022/10/12 00:42:30;;;;;;;16.85;8.50;;;7.10;99.90;;;;;;4999846;28;93745;-29
2022/10/12 00:44:55;;;;;;;13.02;10.20;;;7.10;99.90;;;;;;4999382;28;93881;-32
2022/10/12 00:47:34;;;;;;;19.33;9.00;;;7.10;99.90;;;;;;4998583;28;94964;-29
2022/10/12 00:50:12;;;;;;;11.75;8.55;;;7.10;99.90;;;;;;4999106;28;94846;-31
2022/10/12 00:52:52;;;;;;;16.80;9.73;;;7.10;99.90;;;;;;4998940;28;92913;-29
2022/10/12 00:55:21;;;;;;;17.27;11.25;;;7.10;99.90;;;;;;5018077;22;95439;-31
2022/10/12 00:57:48;;;;;;;;;;;7.10;99.90;;;;;;4979059;28;94648;-30
2022/10/12 01:00:14;;;;;;;16.70;11.13;;;7.10;99.90;;;;;;4980347;28;95070;-33
2022/10/12 01:02:41;;;;;;;18.77;11.45;;;7.10;99.90;;;;;;4978583;28;93858;-33
2022/10/12 01:05:09;;;;;;;18.50;12.45;;;7.10;99.90;;;;;;4979431;28;94255;-30
2022/10/12 01:07:35;;;;;;;19.77;12.32;;;7.20;99.90;;;;;;4977883;28;95060;-31
2022/10/12 01:10:01;;;;;;;15.30;11.25;;;7.20;99.90;;;;;;4974266;28;94330;-30
2022/10/12 01:12:27;;;;;;;14.10;12.55;;;7.30;99.90;;;;;;4978825;28;92762;-31
2022/10/12 01:14:52;;;;;;;18.67;12.68;;;7.30;99.90;;;;;;4977529;28;92429;-29
2022/10/12 01:17:38;;;;;;;6.22;5.72;;;7.30;99.90;;;;;;4978333;28;94245;-31
2022/10/12 01:20:39;;;;;;;8.35;7.65;;;7.20;99.90;;;;;;4979182;28;94703;-31
2022/10/12 01:23:16;;;;;;;19.65;12.18;;;7.00;99.90;;;;;;4974538;28;92214;-31
2022/10/12 01:26:17;;;;;;;15.57;11.77;;;7.00;99.90;;;;;;4978103;28;93383;-34
2022/10/12 01:28:50;;;;;;;16.77;11.90;;;7.00;99.90;;;;;;4968440;28;95957;-31
2022/10/12 01:31:45;;;;;;;14.52;9.52;;;7.00;99.90;;;;;;4977883;28;95539;-30
2022/10/12 01:34:30;;;;;;;11.45;7.35;;;7.00;99.90;;;;;;4979261;28;93791;-31
2022/10/12 01:37:06;;;;;;;15.00;12.02;;;6.80;99.90;;;;;;4978733;28;93279;-30
2022/10/12 01:39:51;;;;;;;13.75;9.18;;;6.70;99.90;;;;;;4977846;28;94391;-31
2022/10/12 01:42:23;;;;;;;10.38;6.18;;;6.60;99.90;;;;;;4978584;28;94311;-32
2022/10/12 01:44:48;;;;;;;7.90;6.32;;;6.50;99.90;;;;;;4978824;28;93241;-30
2022/10/12 01:47:14;;;;;;;11.30;6.97;;;6.40;99.90;;;;;;4979189;28;93492;-31
2022/10/12 01:49:40;;;;;;;7.15;6.45;;;6.30;99.90;;;;;;4949411;28;94390;-34
2022/10/12 01:52:24;;;;;;;14.35;9.35;;;6.20;99.90;;;;;;4975426;28;94528;-32
2022/10/12 01:55:14;;;;;;;19.10;10.40;;;6.20;99.90;;;;;;4977548;28;95117;-31
2022/10/12 01:58:16;;;;;;;14.98;10.65;;;6.20;99.90;;;;;;4964790;28;93524;-32
2022/10/12 02:01:21;;;;;;;15.98;10.65;;;6.20;99.90;;;;;;4976597;28;94920;-31
2022/10/12 02:04:23;;;;;;;13.65;10.52;;;6.20;99.90;;;;;;4976767;28;94673;-33
2022/10/12 02:06:56;;;;;;;13.65;11.15;;;6.20;99.90;;;;;;4977568;28;94943;-32
2022/10/12 02:09:27;;;;;;;16.48;10.63;;;6.30;99.90;;;;;;4978070;28;93179;-29
2022/10/12 02:11:57;;;;;;;13.65;9.82;;;6.30;99.90;;;;;;4977028;28;94684;-33
2022/10/12 02:14:28;;;;;;;10.93;9.88;;;6.30;99.90;;;;;;4977745;28;92563;-33
2022/10/12 02:17:03;;;;;;;18.20;10.93;;;6.30;99.90;;;;;;4977804;28;94311;-30
2022/10/12 02:19:34;;;;;;;23.02;13.82;;;6.40;99.90;;;;;;4977733;28;92981;-31
2022/10/12 02:22:03;;;;;;;14.25;11.07;;;6.30;99.90;;;;;;4977141;28;96007;-31
2022/10/12 02:24:30;;;;;;;17.45;10.85;;;6.30;99.90;;;;;;4977272;28;95398;-29
2022/10/12 02:26:57;;;;;;;19.95;11.32;;;6.30;99.90;;;;;;4977518;28;94382;-35
2022/10/12 02:29:29;;;;;;;16.00;12.02;;;6.30;99.90;;;;;;4975743;28;92310;-30
2022/10/12 02:32:06;;;;;;;15.02;13.20;;;6.30;99.90;;;;;;4977311;28;94150;-29
2022/10/12 02:34:43;;;;;;;13.82;11.95;;;6.30;99.90;;;;;;4977077;28;94216;-29
2022/10/12 02:37:11;;;;;;;19.48;11.88;;;6.20;99.90;;;;;;4970802;28;94505;-31
2022/10/12 02:39:53;;;;;;;14.00;12.45;;;6.20;99.90;;;;;;4956511;28;91884;-34
2022/10/12 02:42:42;;;;;;;12.18;11.02;;;6.20;99.90;;;;;;4956728;28;95016;-29
2022/10/12 02:45:09;;;;;;;;;;;6.20;99.90;;;;;;4957669;28;94527;-30
2022/10/12 02:47:36;;;;;;;19.90;12.35;;;6.20;99.90;;;;;;4958204;28;94261;-32
2022/10/12 02:50:03;;;;;;;18.80;12.80;;;6.20;99.90;;;;;;4956779;28;92587;-31
2022/10/12 02:52:31;;;;;;;16.48;13.20;;;6.20;99.90;;;;;;4957501;28;94983;-30
2022/10/12 02:54:57;;;;;;;24.47;14.63;;;6.30;99.90;;;;;;4955683;28;94804;-33
2022/10/12 02:57:22;;;;;;;21.73;15.15;;;6.30;99.90;;;;;;4957411;28;94244;-31
2022/10/12 02:59:48;;;;;;;20.45;13.30;;;6.30;99.90;;;;;;4936210;28;93909;-31
2022/10/12 03:02:13;;;;;;;23.08;13.20;;;6.30;99.90;;;;;;4946676;28;94874;-31
2022/10/12 03:04:39;;;;;;;18.05;14.73;;;6.40;99.90;;;;;;4957499;28;94311;-29
2022/10/12 03:07:05;;;;;;;21.15;15.00;;;6.40;99.90;;;;;;4957153;28;94495;-32
2022/10/12 03:09:30;;;;;;;20.63;14.10;;;6.40;99.90;;;;;;4957267;28;92142;-30
2022/10/12 03:11:56;;;;;;;14.40;11.48;;;6.40;99.90;;;;;;4955985;28;95981;-32
2022/10/12 03:14:22;;;;;;;14.77;13.43;;;6.40;99.90;;;;;;4956195;28;95332;-31
2022/10/12 03:16:47;;;;;;;19.15;13.98;;;6.30;99.90;;;;;;4956738;28;94049;-30
2022/10/12 03:19:14;;;;;;;19.15;14.85;;;6.30;99.90;;;;;;4957031;28;92991;-29
2022/10/12 03:21:40;;;;;;;25.38;14.80;;;6.30;99.90;;;;;;4957433;28;94833;-33
2022/10/12 03:24:06;;;;;;;20.40;14.52;;;6.30;99.90;;;;;;4956380;28;95946;-31
2022/10/12 03:26:32;;;;;;;14.50;12.68;;;6.30;99.90;;;;;;4957118;28;92752;-29
2022/10/12 03:28:57;;;;;;;14.50;13.13;;;6.20;99.90;;;;;;4956917;28;92213;-29
2022/10/12 03:31:23;;;;;;;16.88;14.63;;;6.30;99.90;;;;;;4955996;28;95350;-30
2022/10/12 03:33:48;;;;;;;16.83;14.38;;;6.20;99.90;;;;;;4956463;28;94430;-31
2022/10/12 03:36:14;;;;;;;14.18;12.77;;;6.20;99.90;;;;;;4956009;28;95510;-31
2022/10/12 03:38:40;;;;;;;17.33;13.73;;;6.20;99.90;;;;;;4956509;28;93595;-34
2022/10/12 03:41:05;;;;;;;19.35;13.75;;;6.20;99.90;;;;;;4955534;28;94593;-31
2022/10/12 03:43:31;;;;;;;19.10;13.60;;;6.10;99.90;;;;;;4956001;28;93067;-33
2022/10/12 03:45:56;;;;;;;20.23;13.57;;;6.10;99.90;;;;;;4957123;28;93651;-29
2022/10/12 03:48:22;;;;;;;21.17;15.45;;;6.00;99.90;;;;;;4955593;28;94404;-31
2022/10/12 03:50:49;;;;;;;13.93;12.43;;;6.00;99.90;;;;;;4956003;28;94947;-28
2022/10/12 03:53:16;;;;;;;14.85;12.38;;;6.00;99.90;;;;;;4955815;28;94398;-30
2022/10/12 03:55:41;;;;;;;13.70;12.32;;;5.90;99.90;;;;;;4955878;28;92582;-30
2022/10/12 03:58:07;;;;;;;18.85;12.32;;;5.90;99.90;;;;;;4956373;28;95344;-29
2022/10/12 04:00:32;;;;;;;16.75;12.75;;;5.90;99.90;;;;;;4955100;28;95830;-28
2022/10/12 04:02:58;;;;;;;17.80;13.35;;;5.90;99.90;;;;;;4956172;28;96155;-30
2022/10/12 04:05:24;;;;;;;15.40;12.75;;;5.80;99.90;;;;;;4956374;28;92131;-30
2022/10/12 04:07:50;;;;;;;20.20;13.30;;;5.80;99.90;;;;;;4955326;28;94367;-34
2022/10/12 04:10:16;;;;;;;14.02;12.55;;;5.80;99.90;;;;;;4956544;28;94760;-29
2022/10/12 04:12:42;;;;;;;17.75;13.88;;;5.80;99.90;;;;;;4955557;28;95108;-31
2022/10/12 04:15:08;;;;;;;20.63;12.35;;;5.80;99.90;;;;;;4956921;28;92261;-28
2022/10/12 04:17:34;;;;;;;14.93;13.35;;;5.70;99.90;;;;;;4956974;28;92944;-32
2022/10/12 04:20:00;;;;;;;15.15;12.88;;;5.70;99.90;;;;;;4955289;28;94735;-29
2022/10/12 04:22:25;;;;;;;16.48;13.30;;;5.70;99.90;;;;;;4956311;28;95264;-29
2022/10/12 04:24:51;;;;;;;15.60;12.32;;;5.70;99.90;;;;;;4955358;28;94579;-32
2022/10/12 04:27:16;;;;;;;13.88;12.55;;;5.70;99.90;;;;;;4956329;28;92157;-31
2022/10/12 04:29:42;;;;;;;15.80;13.00;;;5.70;99.90;;;;;;4955096;28;95692;-32
2022/10/12 04:32:08;;;;;;;15.75;12.82;;;5.70;99.90;;;;;;4955552;28;94984;-30
2022/10/12 04:34:34;;;;;;;22.25;12.55;;;5.70;99.90;;;;;;4956101;28;92858;-30
2022/10/12 04:37:00;;;;;;;13.18;11.98;;;5.70;99.90;;;;;;4955755;28;93180;-31
2022/10/12 04:39:26;;;;;;;15.35;13.55;;;5.70;99.90;;;;;;4955815;28;95087;-31
2022/10/12 04:41:52;;;;;;;20.33;14.77;;;5.70;99.90;;;;;;4955415;28;95938;-32
2022/10/12 04:44:18;;;;;;;17.73;14.57;;;5.70;99.90;;;;;;4956448;28;94385;-34
2022/10/12 04:46:43;;;;;;;14.32;12.82;;;5.70;99.90;;;;;;4956175;28;94323;-30
2022/10/12 04:49:09;;;;;;;15.88;12.00;;;5.70;99.90;;;;;;4954230;28;95855;-29
2022/10/12 04:51:34;;;;;;;15.02;12.25;;;5.70;99.90;;;;;;4955898;28;95071;-30
2022/10/12 04:54:00;;;;;;;13.30;11.75;;;5.60;99.90;;;;;;4957066;28;94568;-32
2022/10/12 04:56:26;;;;;;;27.67;19.92;;;5.60;99.90;;;;;;4958724;28;94658;-34
2022/10/12 04:58:51;;;;;;;15.07;13.10;;;5.60;99.90;;;;;;4958299;28;94889;-31
2022/10/12 05:01:17;;;;;;;20.33;13.18;;;5.60;99.90;;;;;;4958630;28;94577;-33
2022/10/12 05:03:43;;;;;;;17.10;13.20;;;5.60;99.90;;;;;;4959075;28;94384;-28
2022/10/12 05:06:08;;;;;;;19.48;12.85;;;5.60;99.90;;;;;;4958626;28;92045;-29
2022/10/12 05:08:34;;;;;;;22.02;12.57;;;5.60;99.90;;;;;;4959323;28;94823;-32
2022/10/12 05:11:00;;;;;;;21.02;13.35;;;5.60;99.90;;;;;;4958548;28;94384;-32
2022/10/12 05:13:26;;;;;;;13.55;12.20;;;5.60;99.90;;;;;;4958671;28;94471;-32
2022/10/12 05:15:51;;;;;;;16.85;12.40;;;5.60;99.90;;;;;;4958793;28;92128;-31
2022/10/12 05:18:17;;;;;;;15.40;12.52;;;5.50;99.90;;;;;;4957812;28;94756;-29
2022/10/12 05:20:43;;;;;;;20.30;12.23;;;5.50;99.90;;;;;;4958719;28;93498;-29
2022/10/12 05:23:10;;;;;;;15.32;12.82;;;5.50;99.90;;;;;;4959058;28;93991;-29
2022/10/12 05:25:36;;;;;;;18.45;14.25;;;5.50;99.90;;;;;;4958513;28;94430;-33
2022/10/12 05:28:02;;;;;;;18.67;13.05;;;5.50;99.90;;;;;;4958238;28;94681;-31
2022/10/12 05:30:27;;;;;;;20.88;13.32;;;5.40;99.90;;;;;;4958594;28;93828;-33
2022/10/12 05:32:53;;;;;;;14.52;12.27;;;5.40;99.90;;;;;;4958288;28;92114;-29
2022/10/12 05:35:19;;;;;;;13.30;12.00;;;5.40;99.90;;;;;;4958325;28;92174;-29
2022/10/12 05:37:44;;;;;;;14.63;11.95;;;5.40;99.90;;;;;;4957609;28;95655;-29
2022/10/12 05:40:10;;;;;;;15.50;12.68;;;5.30;99.90;;;;;;4957679;28;93908;-31
2022/10/12 05:42:36;;;;;;;17.77;15.80;;;5.30;99.90;;;;;;4957967;28;93331;-29
2022/10/12 05:45:03;;;;;;;19.02;12.85;;;5.30;99.90;;;;;;4958288;28;93586;-28
2022/10/12 05:47:28;;;;;;;19.88;12.63;;;5.30;99.90;;;;;;4958056;28;95290;-31
2022/10/12 05:49:54;;;;;;;24.88;13.80;;;5.30;99.90;;;;;;4957367;28;94800;-31
2022/10/12 05:52:19;;;;;;;18.73;13.68;;;5.30;99.90;;;;;;4958609;28;93196;-29
2022/10/12 05:54:45;;;;;;;15.00;13.40;;;5.30;99.90;;;;;;4957241;28;93141;-32
2022/10/12 05:57:13;;;;;;;20.63;14.25;;;5.40;99.90;;;;;;4957732;28;94935;-32
2022/10/12 05:59:39;;;;;;;26.75;14.90;;;5.40;99.90;;;;;;4955769;28;95221;-31
2022/10/12 06:02:04;;;;;;;21.08;14.38;;;5.40;99.90;;;;;;4954089;28;93929;-30
2022/10/12 06:04:30;;;;;;;19.77;14.43;;;5.40;99.90;;;;;;4956311;28;92645;-32
2022/10/12 06:06:55;;;;;;;18.33;14.60;;;5.40;99.90;;;;;;4957005;28;95331;-31
2022/10/12 06:09:21;;;;;;;18.55;14.30;;;5.50;99.90;;;;;;4940310;28;94513;-30
2022/10/12 06:11:47;;;;;;;16.48;13.85;;;5.50;99.90;;;;;;4957092;28;92182;-32
2022/10/12 06:14:13;;;;;;;24.17;14.88;;;5.50;99.90;;;;;;4929184;28;94716;-29
2022/10/12 06:16:39;;;;;;;22.35;16.83;;;5.50;99.90;;;;;;4939646;28;95256;-31
2022/10/12 06:19:04;;;;;;;31.80;16.20;;;5.50;99.90;;;;;;4957593;28;94467;-30
2022/10/12 06:21:30;;;;;;;26.17;14.32;;;5.50;99.90;;;;;;4958309;28;94396;-31
2022/10/12 06:23:55;;;;;;;23.83;15.63;;;5.60;99.90;;;;;;4956492;28;92689;-31
2022/10/12 06:26:22;;;;;;;17.70;14.40;;;5.50;99.90;;;;;;4957108;28;95603;-32
2022/10/12 06:28:47;;;;;;;16.33;12.40;;;5.50;99.90;;;;;;4956987;28;96384;-30
2022/10/12 06:31:13;;;;;;;15.25;13.48;;;5.50;99.90;;;;;;4957383;28;93021;-29
2022/10/12 06:33:39;;;;;;;18.88;13.50;;;5.50;99.90;;;;;;4957260;28;94435;-29
2022/10/12 06:36:05;;;;;;;17.77;15.35;;;5.50;99.90;;;;;;4955772;28;94796;-31
2022/10/12 06:38:30;;;;;;;16.20;14.43;;;5.50;99.90;;;;;;4956886;28;94518;-33
2022/10/12 06:40:56;;;;;;;20.98;13.55;;;5.50;99.90;;;;;;4957408;28;94281;-31
2022/10/12 06:43:23;;;;;;;23.35;14.15;;;5.50;99.90;;;;;;4957213;28;93411;-34
2022/10/12 06:45:48;;;;;;;22.77;17.15;;;5.50;99.90;;;;;;4956868;28;94639;-30
2022/10/12 06:48:14;;;;;;;18.95;14.18;;;5.60;99.90;;;;;;4957221;28;94458;-34
2022/10/12 06:50:40;;;;;;;21.67;16.88;;;5.60;99.90;;;;;;4956666;28;95332;-34
2022/10/12 06:53:05;;;;;;;29.27;16.45;;;5.60;99.90;;;;;;4957303;28;94410;-31
2022/10/12 06:55:31;;;;;;;24.23;16.02;;;5.70;99.90;;;;;;4956200;28;94829;-32
2022/10/12 06:57:57;;;;;;;19.75;15.20;;;5.70;99.90;;;;;;4956849;28;94406;-32
2022/10/12 07:00:24;;;;;;;24.30;15.00;;;5.70;99.90;;;;;;4956705;28;93871;-33
2022/10/12 07:02:51;;;;;;;28.00;14.23;;;5.80;99.90;;;;;;4956389;28;93266;-31
2022/10/12 07:05:19;;;;;;;21.42;14.55;;;5.80;99.90;;;;;;4956745;28;94684;-33
2022/10/12 07:07:45;;;;;;;16.90;14.00;;;5.80;99.90;;;;;;4956941;28;94892;-29
2022/10/12 07:10:11;;;;;;;18.20;15.85;;;6.00;99.90;;;;;;4955333;28;92143;-31
2022/10/12 07:12:37;;;;;;;18.52;15.25;;;6.00;99.90;;;;;;4956429;28;94435;-33
2022/10/12 07:15:04;;;;;;;22.45;15.80;;;6.10;99.90;;;;;;4951507;28;96382;-32
2022/10/12 07:17:30;;;;;;;18.15;14.55;;;6.20;99.90;;;;;;4954082;28;95607;-30
2022/10/12 07:19:56;;;;;;;19.02;14.93;;;6.20;99.90;;;;;;4953678;28;92295;-30
2022/10/12 07:22:21;;;;;;;18.52;14.90;;;6.20;99.90;;;;;;4953505;28;93812;-32
2022/10/12 07:24:47;;;;;;;17.13;13.63;;;6.30;99.90;;;;;;4952916;28;95231;-31
2022/10/12 07:27:12;;;;;;;18.65;13.73;;;6.30;99.90;;;;;;4951648;28;95197;-34
2022/10/12 07:29:39;;;;;;;22.15;15.57;;;6.30;99.90;;;;;;4953728;28;93638;-30
2022/10/12 07:32:05;;;;;;;17.30;15.50;;;6.30;99.90;;;;;;4954760;28;93251;-30
2022/10/12 07:34:31;;;;;;;19.42;15.27;;;6.30;99.90;;;;;;4952297;28;95153;-31
2022/10/12 07:36:57;;;;;;;29.00;17.42;;;6.40;99.90;;;;;;4952394;28;94744;-35
2022/10/12 07:39:23;;;;;;;22.25;14.30;;;6.40;99.90;;;;;;4952070;28;95521;-31
2022/10/12 07:41:50;;;;;;;23.17;14.95;;;6.50;99.90;;;;;;4953300;28;92703;-31
2022/10/12 07:44:15;;;;;;;24.35;16.30;;;6.50;99.90;;;;;;4954239;28;95286;-30
2022/10/12 07:46:41;;;;;;;23.48;15.05;;;6.50;99.90;;;;;;4952473;28;96253;-33
2022/10/12 07:49:07;;;;;;;20.45;14.65;;;6.60;99.90;;;;;;4953743;28;93453;-34
2022/10/12 07:51:33;;;;;;;16.70;14.60;;;6.70;99.90;;;;;;4954055;28;94204;-32
2022/10/12 07:53:59;;;;;;;17.20;14.63;;;6.70;99.90;;;;;;4972588;28;93314;-31
2022/10/12 07:56:25;;;;;;;17.63;14.45;;;6.80;99.90;;;;;;4974079;28;94584;-31
2022/10/12 07:58:53;;;;;;;21.65;13.40;;;6.80;99.90;;;;;;4972980;28;94551;-29
2022/10/12 08:01:21;;;;;;;24.95;15.73;;;6.80;99.90;;;;;;4973253;28;92748;-31
2022/10/12 08:03:47;;;;;;;27.27;17.13;;;6.90;99.90;;;;;;4972197;28;95657;-33
2022/10/12 08:06:16;;;;;;;24.02;14.88;;;7.00;99.90;;;;;;4973596;28;95444;-31
2022/10/12 08:08:42;;;;;;;19.50;13.88;;;7.10;99.90;;;;;;4973270;28;94361;-32
2022/10/12 08:11:08;;;;;;;20.55;15.70;;;7.10;99.90;;;;;;4973055;28;93052;-33
2022/10/12 08:13:35;;;;;;;19.83;15.75;;;7.20;99.90;;;;;;4973309;28;94681;-34
2022/10/12 08:16:02;;;;;;;24.85;16.45;;;7.30;99.90;;;;;;4973201;28;94825;-30
2022/10/12 08:18:28;;;;;;;26.55;16.70;;;7.50;99.90;;;;;;4973749;28;94610;-33
2022/10/12 08:20:54;;;;;;;17.05;13.38;;;7.60;99.90;;;;;;4972907;28;93686;-34
2022/10/12 08:23:19;;;;;;;19.15;13.85;;;7.80;99.90;;;;;;4972920;28;94510;-31
2022/10/12 08:25:52;;;;;;;20.88;14.55;;;8.10;99.90;;;;;;4972064;28;94188;-33
2022/10/12 08:28:18;;;;;;;24.30;15.30;;;8.30;99.90;;;;;;4974448;28;93119;-31
2022/10/12 08:30:44;;;;;;;19.15;14.57;;;8.40;99.90;;;;;;4976079;28;94765;-35
2022/10/12 08:33:10;;;;;;;20.50;13.70;;;8.50;99.90;;;;;;4976458;28;94871;-31
2022/10/12 08:35:40;;;;;;;19.00;13.88;;;8.60;99.90;;;;;;4975266;28;95601;-31
2022/10/12 08:38:06;;;;;;;19.98;13.52;;;8.70;99.90;;;;;;4969195;28;94737;-33
2022/10/12 08:40:36;;;;;;;24.38;15.25;;;8.70;99.90;;;;;;4956282;28;93745;-34
2022/10/12 08:43:31;;;;;;;19.67;13.43;;;8.80;99.90;;;;;;4955300;28;94267;-32
2022/10/12 08:45:59;;;;;;;21.92;13.55;;;8.90;99.90;;;;;;4946693;28;94317;-33
2022/10/12 08:48:59;;;;;;;18.30;13.25;;;9.00;99.90;;;;;;4955424;28;94310;-30
2022/10/12 08:51:29;;;;;;;20.42;13.68;;;9.10;99.90;;;;;;4915645;28;94409;-30
2022/10/12 08:54:11;;;;;;;25.38;13.50;;;9.20;99.90;;;;;;4954882;28;95638;-34
2022/10/12 08:56:39;;;;;;;20.48;14.75;;;9.30;99.90;;;;;;4952454;28;95653;-32
2022/10/12 08:59:04;;;;;;;22.77;12.85;;;9.40;99.90;;;;;;4956519;28;93756;-34
2022/10/12 09:01:53;;;;;;;25.45;11.68;;;9.50;99.90;;;;;;4956324;28;92827;-32
2022/10/12 09:04:50;;;;;;;20.10;9.82;;;9.60;99.90;;;;;;4955774;28;94279;-34
2022/10/12 09:07:25;;;;;;;17.63;11.55;;;9.70;99.90;;;;;;4942759;28;94824;-33
2022/10/12 09:10:17;;;;;;;20.15;12.50;;;9.80;99.90;;;;;;4955830;28;93407;-35
2022/10/12 09:12:58;;;;;;;22.08;10.80;;;9.90;99.90;;;;;;4955732;28;93076;-33
2022/10/12 09:15:32;;;;;;;22.23;12.73;;;10.00;99.90;;;;;;4955656;28;94967;-32
2022/10/12 09:18:00;;;;;;;14.95;12.85;;;10.10;99.90;;;;;;4955057;28;94520;-31
2022/10/12 09:20:34;;;;;;;14.95;12.35;;;10.10;99.90;;;;;;4955538;28;95410;-33
2022/10/12 09:23:23;;;;;;;14.23;11.88;;;10.20;99.90;;;;;;4955845;28;93949;-32
2022/10/12 09:25:49;;;;;;;20.00;11.65;;;10.30;99.90;;;;;;4946649;28;94387;-32
2022/10/12 09:28:26;;;;;;;20.35;12.32;;;10.30;99.90;;;;;;4955882;28;94777;-32
2022/10/12 09:31:19;;;;;;;19.45;11.93;;;10.40;99.90;;;;;;4947069;28;93383;-33
2022/10/12 09:33:57;;;;;;;13.77;11.25;;;10.40;99.90;;;;;;4954725;28;93566;-34
2022/10/12 09:36:26;;;;;;;18.45;10.70;;;10.50;99.90;;;;;;4954919;28;94323;-33
2022/10/12 09:38:52;;;;;;;23.80;12.27;;;10.50;99.90;;;;;;4955326;28;94583;-29
2022/10/12 09:41:23;;;;;;;19.42;11.25;;;10.50;99.90;;;;;;4956394;28;94802;-33
2022/10/12 09:43:57;;;;;;;24.38;12.65;;;10.50;99.90;;;;;;4955205;28;94508;-32
2022/10/12 09:46:40;;;;;;;20.52;11.65;;;10.50;99.90;;;;;;4954385;28;97225;-33
2022/10/12 09:49:05;;;;;;;30.67;13.05;;;10.60;99.90;;;;;;4955585;28;95773;-32
2022/10/12 09:51:32;;;;;;;16.08;10.95;;;10.60;99.90;;;;;;4971288;28;93221;-31
2022/10/12 09:54:02;;;;;;;17.23;9.77;;;10.80;99.90;;;;;;4974301;28;94174;-34
2022/10/12 09:56:35;;;;;;;16.40;10.80;;;10.90;99.90;;;;;;4975683;28;94696;-32
2022/10/12 09:59:29;;;;;;;15.40;9.88;;;11.00;99.90;;;;;;4974329;28;93666;-32
2022/10/12 10:02:06;;;;;;;14.13;8.40;;;11.10;99.90;;;;;;4964750;28;94160;-33
2022/10/12 10:04:32;;;;;;;17.73;10.07;;;11.20;99.90;;;;;;4976069;28;92358;-33
2022/10/12 10:07:16;;;;;;;14.38;7.93;;;11.20;99.90;;;;;;4974899;28;95557;-32
2022/10/12 10:09:42;;;;;;;13.68;9.05;;;11.30;99.90;;;;;;4975054;28;94802;-32
2022/10/12 10:12:11;;;;;;;11.85;7.25;;;11.40;99.90;;;;;;4974943;28;93181;-31
2022/10/12 10:14:37;;;;;;;11.30;8.57;;;11.40;99.90;;;;;;4976100;28;94406;-31
2022/10/12 10:17:03;;;;;;;12.50;6.72;;;11.60;99.90;;;;;;4974618;28;94985;-33
2022/10/12 10:19:28;;;;;;;17.33;8.00;;;11.60;99.90;;;;;;4976145;28;94509;-32
2022/10/12 10:21:54;;;;;;;10.32;6.95;;;11.70;99.90;;;;;;4975112;28;94119;-32
2022/10/12 10:24:27;;;;;;;8.77;6.50;;;11.80;99.90;;;;;;4975452;28;94088;-29
2022/10/12 10:27:02;;;;;;;15.60;5.70;;;11.90;99.90;;;;;;4974120;28;95015;-31
2022/10/12 10:29:36;;;;;;;8.20;5.55;;;12.00;99.90;;;;;;4975493;28;94097;-34
2022/10/12 10:32:27;;;;;;;10.00;6.25;;;12.10;99.90;;;;;;4975403;28;93414;-34
2022/10/12 10:35:11;;;;;;;14.05;5.72;;;12.20;99.90;;;;;;4966599;28;93110;-34
2022/10/12 10:37:56;;;;;;;10.98;5.78;;;12.30;99.90;;;;;;4973946;28;95297;-30
2022/10/12 10:40:41;;;;;;;8.30;5.47;;;12.40;99.90;;;;;;4974900;28;93204;-35
2022/10/12 10:43:28;;;;;;;8.63;5.90;;;12.50;99.90;;;;;;4976301;28;93899;-33
2022/10/12 10:46:21;;;;;;;13.90;6.45;;;12.50;99.90;;;;;;4967406;28;93142;-34
2022/10/12 10:49:05;;;;;;;18.58;6.63;;;12.50;99.90;;;;;;4954906;28;94794;-33
2022/10/12 10:51:50;;;;;;;20.00;7.63;;;12.60;99.90;;;;;;4943522;28;94616;-34
2022/10/12 10:54:26;;;;;;;13.43;5.88;;;12.70;99.90;;;;;;4954950;28;93800;-30
2022/10/12 10:56:58;;;;;;;10.38;5.53;;;12.70;99.90;;;;;;4955451;28;93453;-32
2022/10/12 10:59:58;;;;;;;6.57;5.18;;;12.70;99.90;;;;;;4954937;28;94138;-32
2022/10/12 11:02:53;;;;;;;10.00;6.18;;;12.80;99.90;;;;;;4954925;28;94468;-31
2022/10/12 11:05:28;;;;;;;12.32;7.57;;;12.90;99.90;;;;;;4945477;28;93555;-29
2022/10/12 11:08:00;;;;;;;14.00;5.93;;;13.00;99.90;;;;;;4955423;28;93148;-30
2022/10/12 11:10:41;;;;;;;9.43;6.10;;;13.10;99.90;;;;;;4955328;28;92894;-31
2022/10/12 11:13:21;;;;;;;11.48;6.43;;;13.20;99.90;;;;;;4954245;28;94576;-33
2022/10/12 11:15:59;;;;;;;11.13;4.30;;;13.30;99.90;;;;;;4953580;28;92325;-31
2022/10/12 11:18:43;;;;;;;21.88;5.90;;;13.30;99.90;;;;;;4954636;28;92648;-33
2022/10/12 11:21:28;;;;;;;6.85;4.68;;;13.60;99.90;;;;;;4955411;28;94388;-31
2022/10/12 11:24:13;;;;;;;14.73;5.82;;;13.80;99.90;;;;;;4954912;28;94521;-32
2022/10/12 11:26:48;;;;;;;8.10;3.50;;;14.00;99.90;;;;;;4944012;28;92232;-32
2022/10/12 11:29:16;;;;;;;9.23;4.38;;;14.10;99.90;;;;;;4955220;28;94412;-34
2022/10/12 11:31:57;;;;;;;6.68;4.85;;;14.30;99.90;;;;;;4953456;28;95310;-34
2022/10/12 11:34:25;;;;;;;10.07;4.68;;;14.40;99.90;;;;;;4953765;28;95354;-34
2022/10/12 11:36:53;;;;;;;9.23;5.13;;;14.40;99.90;;;;;;4951472;28;94576;-34
2022/10/12 11:39:26;;;;;;;13.15;4.38;;;14.40;99.90;;;;;;4954188;28;93144;-33
2022/10/12 11:41:54;;;;;;;16.90;5.38;;;14.30;99.90;;;;;;4953894;28;95406;-32
2022/10/12 11:44:40;;;;;;;14.18;4.90;;;14.30;99.90;;;;;;4954244;28;94779;-35
2022/10/12 11:47:29;;;;;;;13.85;5.30;;;14.30;99.90;;;;;;4948694;28;94514;-35
2022/10/12 11:50:27;;;;;;;9.77;4.60;;;14.40;99.90;;;;;;4955930;28;92891;-32
2022/10/12 11:52:54;;;;;;;8.30;4.50;;;14.50;99.90;;;;;;4974370;28;94641;-31
2022/10/12 11:55:50;;;;;;;9.15;4.75;;;14.70;99.90;;;;;;4973908;28;94725;-32
2022/10/12 11:58:27;;;;;;;10.45;4.63;;;14.80;99.90;;;;;;4967183;28;93698;-32
2022/10/12 12:01:11;;;;;;;5.05;2.42;;;14.90;99.90;;;;;;4949449;28;93599;-32
2022/10/12 12:03:43;;;;;;;6.72;3.45;;;15.00;99.90;;;;;;4973135;28;94521;-33
2022/10/12 12:06:27;;;;;;;6.22;3.35;;;15.00;99.90;;;;;;4973776;28;94270;-33
2022/10/12 12:09:02;;;;;;;8.15;3.38;;;15.10;99.90;;;;;;4974906;28;92949;-31
2022/10/12 12:11:30;;;;;;;10.07;3.90;;;15.00;99.90;;;;;;4974455;28;93421;-32
2022/10/12 12:14:20;;;;;;;7.28;4.03;;;15.00;99.90;;;;;;4973828;28;95387;-31
2022/10/12 12:16:47;;;;;;;12.85;4.30;;;15.20;99.90;;;;;;4949324;28;94720;-33
2022/10/12 12:19:38;;;;;;;7.47;3.53;;;15.20;99.90;;;;;;4974766;28;94387;-32
2022/10/12 12:22:30;;;;;;;5.32;2.55;;;15.20;99.90;;;;;;4952620;28;92171;-34
2022/10/12 12:25:04;;;;;;;5.78;2.50;;;15.20;99.90;;;;;;4973656;28;96136;-31
2022/10/12 12:27:39;;;;;;;14.70;4.05;;;15.30;99.90;;;;;;4973784;28;95131;-32
2022/10/12 12:30:33;;;;;;;5.32;3.50;;;15.30;99.90;;;;;;4974281;28;94843;-35
2022/10/12 12:33:03;;;;;;;7.15;3.60;;;15.30;99.90;;;;;;4973917;28;92470;-32
2022/10/12 12:35:30;;;;;;;4.97;3.75;;;15.40;99.90;;;;;;4973915;28;94652;-33
2022/10/12 12:38:00;;;;;;;6.38;3.35;;;15.40;99.90;;;;;;4973391;28;94613;-34
2022/10/12 12:40:26;;;;;;;17.42;5.45;;;15.50;99.90;;;;;;4973763;28;93574;-31
2022/10/12 12:42:51;;;;;;;6.32;4.25;;;15.60;99.90;;;;;;4974391;28;92106;-34
2022/10/12 12:45:32;;;;;;;20.15;3.80;;;15.60;99.90;;;;;;4973504;28;94607;-32
2022/10/12 12:47:58;;;;;;;9.32;4.13;;;15.60;99.90;;;;;;4942116;28;94750;-35
2022/10/12 12:50:33;;;;;;;7.45;3.72;;;15.60;99.90;;;;;;4953482;28;95459;-32
2022/10/12 12:53:06;;;;;;;11.68;3.78;;;15.60;99.90;;;;;;4940693;28;94463;-33
2022/10/12 12:55:47;;;;;;;2.75;2.53;;;15.70;99.90;;;;;;5024993;22;93977;-33
2022/10/12 12:58:33;;;;;;;17.45;4.57;;;15.70;99.90;;;;;;4981121;28;94770;-30